createdAt,value
2023-05-15T00:00:21.301Z,1.70
2023-05-15T00:02:55.317Z,1.47
2023-05-15T00:05:28.639Z,1.80
2023-05-15T00:08:01.894Z,2.40
2023-05-15T00:10:35.172Z,2.63
2023-05-15T00:13:08.378Z,2.57
2023-05-15T00:15:41.595Z,2.30
2023-05-15T00:18:14.915Z,2.33
2023-05-15T00:20:48.128Z,2.37
2023-05-15T00:23:21.443Z,2.43
2023-05-15T00:25:54.672Z,1.90
2023-05-15T00:28:27.849Z,2.07
2023-05-15T00:31:01.100Z,3.07
2023-05-15T00:33:34.384Z,2.57
2023-05-15T00:36:07.886Z,2.33
2023-05-15T00:38:41.114Z,2.40
2023-05-15T00:41:15.142Z,2.23
2023-05-15T00:43:49.833Z,2.67
2023-05-15T00:46:23.808Z,1.93
2023-05-15T00:48:57.676Z,2.00
2023-05-15T00:51:31.066Z,2.40
2023-05-15T00:54:04.647Z,2.83
2023-05-15T00:56:38.039Z,3.30
2023-05-15T00:59:11.821Z,2.47
2023-05-15T01:01:45.331Z,3.07
2023-05-15T01:04:18.571Z,2.23
2023-05-15T01:06:55.024Z,2.23
2023-05-15T01:09:30.856Z,1.93
2023-05-15T01:12:05.714Z,2.30
2023-05-15T01:14:38.894Z,2.93
2023-05-15T01:17:12.218Z,2.67
2023-05-15T01:19:45.986Z,2.63
2023-05-15T01:22:25.572Z,2.50
2023-05-15T01:25:10.999Z,2.50
2023-05-15T01:27:47.761Z,2.60
2023-05-15T01:30:27.882Z,2.87
2023-05-15T01:33:06.169Z,3.57
2023-05-15T01:35:42.545Z,2.30
2023-05-15T01:38:15.775Z,2.90
2023-05-15T01:40:49.756Z,3.13
2023-05-15T01:43:25.199Z,3.40
2023-05-15T01:45:59.570Z,3.30
2023-05-15T01:48:34.242Z,3.00
2023-05-15T01:51:08.649Z,2.33
2023-05-15T01:53:43.275Z,2.43
2023-05-15T01:56:19.883Z,3.80
2023-05-15T01:58:53.348Z,3.13
2023-05-15T02:01:27.435Z,2.93
2023-05-15T02:04:01.235Z,3.30
2023-05-15T02:06:34.568Z,4.00
2023-05-15T02:09:08.329Z,2.70
2023-05-15T02:11:41.671Z,3.50
2023-05-15T02:14:15.804Z,2.70
2023-05-15T02:16:49.116Z,2.60
2023-05-15T02:19:22.567Z,3.20
2023-05-15T02:21:55.778Z,3.00
2023-05-15T02:24:28.966Z,3.40
2023-05-15T02:27:05.417Z,3.17
2023-05-15T02:29:49.016Z,2.03
2023-05-15T02:32:25.352Z,3.10
2023-05-15T02:35:13.309Z,3.10
2023-05-15T02:37:48.770Z,3.03
2023-05-15T02:40:24.116Z,3.40
2023-05-15T02:42:57.828Z,3.13
2023-05-15T02:45:31.416Z,3.27
2023-05-15T02:48:04.978Z,2.77
2023-05-15T02:50:38.319Z,2.80
2023-05-15T02:53:14.360Z,2.10
2023-05-15T02:55:47.944Z,3.27
2023-05-15T02:58:21.168Z,2.53
2023-05-15T03:00:54.432Z,3.20
2023-05-15T03:03:27.715Z,2.30
2023-05-15T03:06:01.038Z,2.03
2023-05-15T03:08:34.275Z,2.50
2023-05-15T03:11:07.504Z,2.50
2023-05-15T03:13:40.673Z,3.07
2023-05-15T03:16:13.907Z,2.87
2023-05-15T03:18:47.158Z,2.80
2023-05-15T03:21:20.658Z,2.40
2023-05-15T03:23:53.831Z,2.40
2023-05-15T03:26:27.167Z,3.30
2023-05-15T03:29:02.371Z,2.10
2023-05-15T03:31:35.714Z,2.17
2023-05-15T03:34:08.953Z,3.30
2023-05-15T03:36:42.221Z,2.00
2023-05-15T03:39:15.373Z,2.53
2023-05-15T03:41:48.661Z,3.17
2023-05-15T03:44:21.888Z,3.17
2023-05-15T03:46:55.136Z,2.80
2023-05-15T03:49:28.535Z,2.33
2023-05-15T03:52:01.797Z,2.53
2023-05-15T03:54:35.508Z,2.90
2023-05-15T03:57:08.779Z,2.43
2023-05-15T03:59:41.946Z,2.70
2023-05-15T04:02:15.413Z,2.57
2023-05-15T04:04:48.929Z,2.90
2023-05-15T04:07:22.172Z,2.23
2023-05-15T04:09:55.526Z,2.83
2023-05-15T04:12:29.746Z,2.67
2023-05-15T04:15:22.963Z,2.87
2023-05-15T04:17:56.348Z,3.00
2023-05-15T04:20:29.611Z,2.27
2023-05-15T04:23:04.259Z,3.73
2023-05-15T04:25:37.883Z,2.10
2023-05-15T04:28:11.051Z,2.23
2023-05-15T04:30:44.288Z,2.20
2023-05-15T04:33:17.493Z,2.30
2023-05-15T04:35:50.799Z,2.23
2023-05-15T04:38:23.995Z,1.73
2023-05-15T04:40:57.196Z,2.30
2023-05-15T04:43:30.411Z,1.67
2023-05-15T04:46:03.734Z,2.23
2023-05-15T04:48:36.958Z,1.40
2023-05-15T04:51:10.168Z,1.70
2023-05-15T04:53:43.353Z,1.70
2023-05-15T04:56:16.625Z,2.47
2023-05-15T04:58:49.750Z,3.20
2023-05-15T05:01:22.973Z,1.97
2023-05-15T05:03:56.329Z,2.60
2023-05-15T05:06:30.543Z,3.37
2023-05-15T05:09:04.967Z,2.67
2023-05-15T05:11:39.628Z,3.10
2023-05-15T05:14:13.213Z,2.90
2023-05-15T05:16:46.436Z,3.50
2023-05-15T05:19:19.621Z,2.73
2023-05-15T05:21:52.853Z,2.80
2023-05-15T05:24:26.196Z,2.90
2023-05-15T05:27:00.258Z,3.70
2023-05-15T05:29:33.583Z,2.87
2023-05-15T05:32:07.641Z,2.90
2023-05-15T05:34:40.971Z,3.10
2023-05-15T05:37:14.142Z,1.87
2023-05-15T05:39:47.361Z,2.50
2023-05-15T05:42:20.545Z,2.27
2023-05-15T05:44:53.786Z,1.70
2023-05-15T05:47:27.012Z,2.50
2023-05-15T05:50:00.272Z,3.00
2023-05-15T05:52:33.470Z,2.27
2023-05-15T05:55:06.881Z,2.23
2023-05-15T05:57:40.399Z,1.63
2023-05-15T06:00:14.324Z,2.30
2023-05-15T06:02:47.788Z,2.63
2023-05-15T06:05:23.337Z,2.07
2023-05-15T06:07:57.009Z,4.70
2023-05-15T06:10:30.757Z,2.30
2023-05-15T06:13:04.108Z,3.67
2023-05-15T06:15:37.286Z,3.00
2023-05-15T06:18:10.778Z,2.10
2023-05-15T06:20:44.022Z,2.97
2023-05-15T06:23:17.230Z,2.83
2023-05-15T06:25:50.429Z,3.73
2023-05-15T06:28:23.653Z,3.10
2023-05-15T06:30:56.843Z,3.60
2023-05-15T06:33:30.061Z,4.03
2023-05-15T06:36:03.663Z,3.77
2023-05-15T06:38:36.823Z,3.30
2023-05-15T06:41:10.020Z,2.47
2023-05-15T06:43:43.195Z,3.43
2023-05-15T06:46:19.006Z,3.10
2023-05-15T06:48:52.322Z,3.97
2023-05-15T06:51:25.496Z,2.73
2023-05-15T06:53:59.021Z,2.90
2023-05-15T06:56:32.223Z,4.23
2023-05-15T06:59:05.477Z,2.80
2023-05-15T07:01:38.710Z,4.37
2023-05-15T07:04:14.709Z,3.50
2023-05-15T07:06:47.949Z,3.57
2023-05-15T07:09:21.188Z,3.63
2023-05-15T07:11:54.367Z,3.70
2023-05-15T07:14:27.695Z,4.47
2023-05-15T07:17:00.883Z,3.97
2023-05-15T07:19:34.256Z,3.87
2023-05-15T07:22:07.881Z,3.83
2023-05-15T07:24:41.186Z,3.03
2023-05-15T07:27:14.482Z,4.20
2023-05-15T07:29:47.753Z,5.07
2023-05-15T07:32:21.407Z,4.23
2023-05-15T07:34:54.704Z,3.67
2023-05-15T07:37:28.055Z,4.40
2023-05-15T07:40:01.376Z,4.80
2023-05-15T07:42:34.699Z,5.70
2023-05-15T07:45:08.194Z,4.07
2023-05-15T07:47:47.987Z,5.07
2023-05-15T07:50:21.431Z,4.10
2023-05-15T07:52:54.620Z,4.53
2023-05-15T07:55:28.052Z,4.00
2023-05-15T07:58:01.375Z,4.50
2023-05-15T08:00:34.795Z,4.60
2023-05-15T08:03:08.177Z,4.60
2023-05-15T08:05:41.732Z,4.90
2023-05-15T08:08:15.129Z,4.27
2023-05-15T08:10:48.345Z,3.27
2023-05-15T08:13:21.522Z,4.13
2023-05-15T08:15:54.797Z,4.50
2023-05-15T08:18:28.065Z,5.00
2023-05-15T08:21:02.905Z,4.30
2023-05-15T08:23:36.671Z,5.10
2023-05-15T08:26:09.985Z,4.23
2023-05-15T08:28:43.213Z,3.80
2023-05-15T08:31:16.452Z,5.80
2023-05-15T08:33:49.820Z,4.60
2023-05-15T08:36:23.253Z,4.37
2023-05-15T08:38:56.710Z,4.77
2023-05-15T08:41:40.740Z,3.63
2023-05-15T08:44:15.499Z,4.37
2023-05-15T08:46:49.687Z,4.20
2023-05-15T08:49:32.946Z,4.47
2023-05-15T08:52:06.314Z,6.00
2023-05-15T08:54:40.234Z,4.30
2023-05-15T08:57:13.631Z,5.07
2023-05-15T08:59:47.235Z,4.23
2023-05-15T09:02:20.928Z,4.90
2023-05-15T09:04:54.180Z,5.40
2023-05-15T09:07:27.665Z,4.17
2023-05-15T09:10:02.175Z,6.90
2023-05-15T09:12:35.816Z,4.57
2023-05-15T09:15:17.964Z,4.87
2023-05-15T09:17:51.873Z,4.70
2023-05-15T09:20:27.032Z,5.07
2023-05-15T09:23:01.394Z,4.97
2023-05-15T09:25:38.254Z,6.03
2023-05-15T09:28:24.943Z,4.70
2023-05-15T09:31:08.981Z,4.97
2023-05-15T09:33:45.530Z,5.60
2023-05-15T09:36:22.932Z,5.10
2023-05-15T09:38:59.988Z,5.90
2023-05-15T09:41:34.101Z,5.17
2023-05-15T09:44:21.211Z,5.70
2023-05-15T09:46:55.076Z,5.40
2023-05-15T09:49:33.380Z,6.27
2023-05-15T09:52:10.801Z,5.63
2023-05-15T09:54:49.442Z,5.10
2023-05-15T09:57:24.097Z,4.67
2023-05-15T10:00:11.779Z,5.47
2023-05-15T10:02:44.985Z,5.30
2023-05-15T10:05:21.519Z,4.60
2023-05-15T10:07:59.746Z,5.43
2023-05-15T10:10:33.312Z,6.60
2023-05-15T10:13:08.077Z,6.73
2023-05-15T10:15:41.807Z,5.27
2023-05-15T10:18:15.644Z,4.80
2023-05-15T10:20:49.468Z,5.40
2023-05-15T10:23:23.174Z,4.63
2023-05-15T10:25:59.198Z,3.70
2023-05-15T10:28:32.882Z,5.70
2023-05-15T10:31:06.547Z,4.50
2023-05-15T10:33:40.037Z,5.90
2023-05-15T10:36:14.931Z,5.73
2023-05-15T10:38:49.085Z,4.57
2023-05-15T10:41:23.757Z,5.70
2023-05-15T10:43:59.307Z,4.83
2023-05-15T10:46:34.367Z,5.10
2023-05-15T10:49:07.567Z,5.10
2023-05-15T10:51:41.318Z,5.60
2023-05-15T10:54:14.982Z,6.23
2023-05-15T10:56:49.424Z,5.50
2023-05-15T10:59:32.124Z,4.47
2023-05-15T11:02:23.717Z,4.43
2023-05-15T11:05:00.801Z,5.00
2023-05-15T11:07:34.079Z,5.37
2023-05-15T11:10:27.503Z,4.30
2023-05-15T11:13:02.875Z,6.63
2023-05-15T11:15:46.156Z,5.00
2023-05-15T11:18:20.688Z,5.80
2023-05-15T11:20:53.887Z,4.77
2023-05-15T11:23:27.122Z,5.63
2023-05-15T11:26:01.576Z,5.57
2023-05-15T11:28:43.615Z,5.83
2023-05-15T11:31:16.910Z,4.83
2023-05-15T11:33:52.492Z,4.40
2023-05-15T11:36:25.889Z,4.93
2023-05-15T11:39:00.045Z,6.57
2023-05-15T11:41:33.339Z,5.57
2023-05-15T11:44:06.574Z,6.60
2023-05-15T11:46:40.132Z,5.90
2023-05-15T11:49:15.476Z,5.80
2023-05-15T11:51:49.154Z,5.50
2023-05-15T11:54:22.588Z,5.00
2023-05-15T11:56:57.994Z,6.33
2023-05-15T11:59:32.054Z,4.87
2023-05-15T12:02:06.636Z,4.90
2023-05-15T12:04:39.948Z,5.17
2023-05-15T12:07:13.198Z,5.83
2023-05-15T12:09:51.300Z,6.13
2023-05-15T12:12:27.612Z,6.33
2023-05-15T12:15:01.095Z,6.00
2023-05-15T12:17:34.309Z,7.17
2023-05-15T12:20:17.805Z,6.77
2023-05-15T12:22:51.099Z,6.57
2023-05-15T12:25:24.368Z,6.50
2023-05-15T12:27:58.280Z,9.00
2023-05-15T12:30:32.719Z,5.63
2023-05-15T12:33:10.045Z,6.57
2023-05-15T12:35:44.418Z,7.43
2023-05-15T12:38:17.635Z,6.70
2023-05-15T12:40:53.573Z,8.30
2023-05-15T12:43:27.253Z,6.70
2023-05-15T12:46:00.760Z,6.37
2023-05-15T12:48:34.137Z,5.93
2023-05-15T12:51:08.295Z,6.63
2023-05-15T12:53:42.576Z,5.00
2023-05-15T12:56:18.982Z,5.13
2023-05-15T12:58:54.559Z,4.90
2023-05-15T13:01:29.471Z,5.03
2023-05-15T13:04:04.229Z,4.57
2023-05-15T13:06:46.395Z,3.17
2023-05-15T13:09:23.894Z,4.10
2023-05-15T13:11:57.434Z,3.77
2023-05-15T13:14:34.464Z,3.30
2023-05-15T13:17:08.113Z,3.40
2023-05-15T13:19:42.785Z,3.70
2023-05-15T13:22:15.959Z,3.00
2023-05-15T13:24:49.308Z,2.77
2023-05-15T13:27:22.499Z,3.60
2023-05-15T13:29:55.936Z,4.00
2023-05-15T13:32:29.228Z,3.27
2023-05-15T13:35:02.948Z,3.57
2023-05-15T13:37:36.319Z,2.67
2023-05-15T13:40:10.773Z,3.20
2023-05-15T13:42:44.500Z,3.67
2023-05-15T13:45:17.742Z,3.40
2023-05-15T13:47:51.855Z,3.20
2023-05-15T13:50:25.281Z,3.30
2023-05-15T13:52:58.713Z,4.20
2023-05-15T13:55:32.035Z,3.60
2023-05-15T13:58:05.421Z,3.57
2023-05-15T14:00:39.711Z,3.93
2023-05-15T14:03:14.951Z,3.30
2023-05-15T14:05:48.501Z,3.77
2023-05-15T14:08:21.971Z,3.33
2023-05-15T14:10:55.430Z,3.37
2023-05-15T14:13:31.655Z,3.63
2023-05-15T14:16:05.297Z,3.20
2023-05-15T14:18:38.734Z,3.53
2023-05-15T14:21:12.023Z,3.00
2023-05-15T14:23:45.279Z,4.57
2023-05-15T14:26:18.548Z,4.00
2023-05-15T14:28:52.053Z,3.93
2023-05-15T14:31:25.966Z,5.60
2023-05-15T14:33:59.283Z,5.23
2023-05-15T14:36:32.773Z,4.80
2023-05-15T14:39:06.280Z,5.50
2023-05-15T14:41:39.469Z,5.33
2023-05-15T14:44:12.861Z,4.90
2023-05-15T14:46:46.149Z,6.00
2023-05-15T14:49:19.380Z,5.40
2023-05-15T14:51:52.574Z,5.40
2023-05-15T14:54:25.759Z,5.40
2023-05-15T14:56:59.018Z,5.10
2023-05-15T14:59:32.242Z,5.57
2023-05-15T15:02:05.626Z,3.90
2023-05-15T15:04:39.029Z,4.70
2023-05-15T15:07:12.434Z,5.03
2023-05-15T15:09:45.636Z,4.57
2023-05-15T15:12:19.032Z,5.63
2023-05-15T15:14:52.249Z,4.47
2023-05-15T15:17:25.430Z,4.77
2023-05-15T15:19:58.647Z,4.60
2023-05-15T15:22:31.805Z,4.40
2023-05-15T15:25:05.556Z,4.27
2023-05-15T15:27:42.738Z,4.30
2023-05-15T15:30:16.570Z,4.73
2023-05-15T15:32:50.067Z,4.80
2023-05-15T15:35:25.800Z,4.63
2023-05-15T15:38:00.985Z,3.93
2023-05-15T15:40:35.847Z,3.70
2023-05-15T15:43:09.086Z,4.20
2023-05-15T15:45:42.379Z,4.77
2023-05-15T15:48:15.695Z,4.33
2023-05-15T15:50:48.965Z,4.30
2023-05-15T15:53:22.387Z,3.80
2023-05-15T15:55:55.565Z,3.90
2023-05-15T15:58:28.775Z,4.47
2023-05-15T16:01:02.198Z,4.27
2023-05-15T16:03:35.675Z,3.90
2023-05-15T16:06:08.970Z,3.63
2023-05-15T16:08:42.195Z,3.27
2023-05-15T16:11:16.384Z,4.87
2023-05-15T16:13:49.583Z,3.50
2023-05-15T16:16:22.975Z,4.93
2023-05-15T16:18:56.273Z,3.63
2023-05-15T16:21:29.532Z,4.30
2023-05-15T16:24:03.543Z,4.47
2023-05-15T16:26:38.690Z,4.77
2023-05-15T16:29:12.568Z,3.70
2023-05-15T16:31:46.856Z,4.13
2023-05-15T16:34:20.738Z,3.60
2023-05-15T16:36:53.948Z,3.70
2023-05-15T16:39:27.298Z,3.53
2023-05-15T16:42:01.439Z,3.20
2023-05-15T16:44:35.162Z,3.07
2023-05-15T16:47:08.772Z,3.30
2023-05-15T16:49:44.281Z,3.23
2023-05-15T16:52:18.127Z,2.20
2023-05-15T16:54:51.390Z,3.30
2023-05-15T16:57:24.613Z,3.73
2023-05-15T16:59:57.951Z,3.17
2023-05-15T17:02:31.365Z,3.30
2023-05-15T17:05:04.775Z,3.23
2023-05-15T17:07:38.355Z,3.07
2023-05-15T17:10:12.367Z,4.07
2023-05-15T17:12:45.684Z,4.17
2023-05-15T17:15:19.075Z,3.80
2023-05-15T17:17:52.696Z,3.77
2023-05-15T17:20:25.960Z,3.40
2023-05-15T17:22:59.149Z,4.87
2023-05-15T17:25:32.412Z,3.37
2023-05-15T17:28:05.629Z,3.40
2023-05-15T17:30:38.968Z,4.30
2023-05-15T17:33:12.219Z,3.53
2023-05-15T17:35:45.571Z,4.20
2023-05-15T17:38:18.767Z,3.43
2023-05-15T17:40:51.992Z,4.00
2023-05-15T17:43:25.386Z,3.87
2023-05-15T17:46:00.297Z,3.83
2023-05-15T17:48:33.989Z,3.87
2023-05-15T17:51:07.661Z,4.00
2023-05-15T17:53:40.901Z,4.30
2023-05-15T17:56:14.331Z,4.50
2023-05-15T17:58:47.657Z,3.60
2023-05-15T18:01:21.996Z,3.80
2023-05-15T18:03:55.495Z,4.33
2023-05-15T18:06:29.155Z,3.80
2023-05-15T18:09:07.053Z,4.73
2023-05-15T18:11:44.123Z,4.07
2023-05-15T18:14:20.345Z,3.60
2023-05-15T18:16:57.889Z,2.63
2023-05-15T18:19:33.824Z,2.90
2023-05-15T18:22:07.114Z,2.70
2023-05-15T18:24:40.524Z,3.63
2023-05-15T18:27:13.739Z,3.53
2023-05-15T18:29:49.813Z,3.00
2023-05-15T18:32:23.186Z,4.50
2023-05-15T18:35:02.310Z,5.67
2023-05-15T18:37:35.520Z,5.30
2023-05-15T18:40:17.212Z,5.03
2023-05-15T18:42:58.876Z,3.70
2023-05-15T18:45:36.987Z,3.47
2023-05-15T18:48:10.398Z,3.10
2023-05-15T18:50:45.935Z,3.93
2023-05-15T18:53:22.363Z,3.40
2023-05-15T18:55:58.141Z,3.10
2023-05-15T18:58:31.352Z,3.70
2023-05-15T19:01:06.711Z,3.70
2023-05-15T19:03:40.131Z,3.40
2023-05-15T19:06:20.750Z,3.50
2023-05-15T19:08:54.093Z,3.70
2023-05-15T19:11:30.535Z,3.70
2023-05-15T19:14:03.919Z,3.43
2023-05-15T19:16:39.419Z,3.27
2023-05-15T19:19:12.865Z,3.60
2023-05-15T19:21:48.680Z,4.20
2023-05-15T19:24:22.039Z,5.40
2023-05-15T19:26:58.497Z,4.67
2023-05-15T19:29:32.057Z,4.97
2023-05-15T19:32:05.593Z,3.43
2023-05-15T19:34:38.792Z,4.67
2023-05-15T19:37:12.096Z,4.37
2023-05-15T19:39:45.430Z,4.13
2023-05-15T19:42:18.618Z,3.40
2023-05-15T19:44:51.871Z,3.33
2023-05-15T19:47:25.114Z,3.50
2023-05-15T19:49:58.374Z,3.60
2023-05-15T19:52:31.516Z,3.23
2023-05-15T19:55:04.849Z,3.57
2023-05-15T19:57:42.673Z,4.57
2023-05-15T20:00:16.029Z,3.40
2023-05-15T20:02:50.169Z,3.00
2023-05-15T20:05:23.418Z,5.33
2023-05-15T20:07:56.611Z,3.80
2023-05-15T20:10:29.836Z,3.60
2023-05-15T20:13:03.056Z,4.80
2023-05-15T20:15:40.071Z,2.50
2023-05-15T20:18:15.264Z,4.23
2023-05-15T20:20:48.536Z,3.17
2023-05-15T20:23:22.043Z,2.83
2023-05-15T20:25:55.311Z,3.70
2023-05-15T20:28:29.048Z,3.70
2023-05-15T20:31:02.323Z,3.47
2023-05-15T20:33:35.602Z,3.10
2023-05-15T20:36:09.327Z,3.40
2023-05-15T20:38:44.933Z,3.80
2023-05-15T20:41:18.220Z,3.00
2023-05-15T20:43:51.410Z,3.10
2023-05-15T20:46:27.546Z,3.60
2023-05-15T20:49:02.861Z,3.87
2023-05-15T20:51:36.200Z,4.47
2023-05-15T20:54:09.444Z,4.93
2023-05-15T20:56:42.632Z,4.03
2023-05-15T20:59:16.117Z,3.93
2023-05-15T21:01:49.289Z,3.90
2023-05-15T21:04:22.630Z,3.00
2023-05-15T21:06:55.855Z,3.47
2023-05-15T21:09:29.030Z,3.57
2023-05-15T21:12:03.823Z,3.20
2023-05-15T21:14:37.054Z,4.23
2023-05-15T21:17:10.472Z,4.07
2023-05-15T21:19:43.722Z,3.77
2023-05-15T21:22:17.007Z,2.83
2023-05-15T21:24:50.556Z,5.13
2023-05-15T21:27:23.754Z,4.50
2023-05-15T21:29:57.277Z,4.57
2023-05-15T21:32:30.717Z,4.07
2023-05-15T21:35:04.016Z,3.73
2023-05-15T21:37:37.245Z,4.90
2023-05-15T21:40:10.925Z,4.20
2023-05-15T21:42:44.174Z,4.80
2023-05-15T21:45:17.426Z,4.30
2023-05-15T21:47:50.779Z,4.37
2023-05-15T21:50:24.133Z,4.37
2023-05-15T21:52:57.684Z,4.57
2023-05-15T21:55:30.915Z,3.60
2023-05-15T21:58:04.157Z,4.00
2023-05-15T22:00:39.693Z,4.40
2023-05-15T22:03:13.096Z,3.67
2023-05-15T22:05:47.600Z,4.40
2023-05-15T22:08:21.604Z,3.97
2023-05-15T22:10:55.001Z,3.67
2023-05-15T22:13:28.252Z,4.23
2023-05-15T22:16:01.424Z,4.80
2023-05-15T22:18:35.369Z,4.40
2023-05-15T22:21:08.640Z,4.57
2023-05-15T22:23:41.882Z,4.77
2023-05-15T22:26:15.267Z,4.83
2023-05-15T22:28:48.850Z,4.40
2023-05-15T22:31:22.660Z,4.47
2023-05-15T22:33:56.346Z,4.50
2023-05-15T22:36:30.868Z,5.23
2023-05-15T22:39:07.738Z,4.00
2023-05-15T22:41:40.953Z,4.63
2023-05-15T22:44:14.391Z,4.87
2023-05-15T22:46:48.082Z,5.10
2023-05-15T22:49:25.378Z,5.20
2023-05-15T22:51:58.694Z,5.10
2023-05-15T22:54:31.893Z,7.13
2023-05-15T22:57:05.211Z,4.03
2023-05-15T22:59:38.501Z,4.47
2023-05-15T23:02:11.737Z,4.80
2023-05-15T23:04:45.032Z,5.47
2023-05-15T23:07:18.266Z,4.80
2023-05-15T23:09:51.429Z,4.60
2023-05-15T23:12:24.650Z,4.90
2023-05-15T23:14:57.842Z,5.20
2023-05-15T23:17:31.172Z,4.13
2023-05-15T23:20:10.495Z,4.10
2023-05-15T23:22:43.781Z,4.63
2023-05-15T23:25:17.085Z,4.97
2023-05-15T23:27:50.285Z,4.43
2023-05-15T23:30:24.013Z,5.50
2023-05-15T23:32:57.447Z,4.57
2023-05-15T23:35:30.633Z,4.93
2023-05-15T23:38:03.834Z,5.27
2023-05-15T23:40:37.018Z,4.47
2023-05-15T23:43:10.198Z,4.60
2023-05-15T23:45:43.640Z,5.57
2023-05-15T23:48:17.044Z,5.03
2023-05-15T23:50:51.542Z,5.83
2023-05-15T23:53:24.771Z,4.57
2023-05-15T23:55:58.021Z,4.53
2023-05-15T23:58:31.240Z,5.70
